Time;durP1;ratioP1;P1;durP2;ratioP2;P2;SDS_P1;SDS_P2;PMS_P1;PMS_P2;Temp;Humidity;BMP_temperature;BMP_pressure;BME280_temperature;BME280_humidity;BME280_pressure;Samples;Min_cycle;Max_cycle;Signal;HPM_P1;HPM_P2
2021/10/25 00:04:06;;;;;;;37.15;18.43;;;;;;;4.08;100.00;101649.32;713854;1199;114269;-73
2021/10/25 00:19:09;;;;;;;37.00;18.55;;;;;;;3.95;100.00;101649.81;715003;1177;113940;-73
2021/10/25 00:34:11;;;;;;;32.00;17.23;;;;;;;3.83;100.00;101652.88;713846;1200;114618;-73
2021/10/25 00:49:14;;;;;;;35.68;16.33;;;;;;;3.74;100.00;101629.87;713976;1202;114382;-74
2021/10/25 01:04:19;;;;;;;32.00;15.97;;;;;;;3.81;100.00;101616.60;713933;1202;115333;-74
2021/10/25 01:19:21;;;;;;;32.78;16.28;;;;;;;3.98;100.00;101597.74;714031;1201;114421;-74
2021/10/25 01:34:24;;;;;;;29.43;13.17;;;;;;;4.16;100.00;101584.95;713888;1200;113695;-74
2021/10/25 01:49:26;;;;;;;28.38;13.15;;;;;;;4.28;100.00;101578.41;713914;1199;114364;-74
2021/10/25 02:04:30;;;;;;;26.50;13.40;;;;;;;4.38;100.00;101558.08;713968;1202;114590;-74
2021/10/25 02:19:33;;;;;;;26.47;14.93;;;;;;;4.26;100.00;101543.84;714745;1200;115496;-75
2021/10/25 02:34:35;;;;;;;37.30;18.87;;;;;;;4.04;100.00;101536.95;714338;1200;113269;-76
2021/10/25 02:49:38;;;;;;;30.68;16.73;;;;;;;4.16;100.00;101513.05;714088;1199;114047;-76
2021/10/25 03:04:40;;;;;;;30.10;13.07;;;;;;;4.39;100.00;101505.21;713941;1200;115441;-75
2021/10/25 03:19:42;;;;;;;24.00;12.43;;;;;;;4.50;100.00;101483.05;713991;1200;114150;-75
2021/10/25 03:34:44;;;;;;;30.70;13.93;;;;;;;4.65;100.00;101478.09;714228;1204;115591;-75
2021/10/25 03:49:55;;;;;;;29.58;12.35;;;;;;;4.50;100.00;101469.23;713975;1200;114294;-75
2021/10/25 04:35:51;;;;;;;24.90;12.80;;;;;;;4.08;100.00;101418.18;713811;1174;115639;-75
2021/10/25 04:50:53;;;;;;;28.00;13.70;;;;;;;4.04;100.00;101395.85;713805;1199;115371;-74
2021/10/25 05:05:55;;;;;;;30.70;14.53;;;;;;;3.98;100.00;101397.80;716579;1165;114974;-73
2021/10/25 05:20:58;;;;;;;37.67;17.60;;;;;;;3.81;100.00;101374.31;713627;1203;114080;-72
2021/10/25 05:36:00;;;;;;;40.08;19.63;;;;;;;3.84;100.00;101363.82;713685;1205;113885;-74
2021/10/25 05:51:02;;;;;;;182.60;72.65;;;;;;;3.91;100.00;101352.25;713676;1190;115479;-72
2021/10/25 06:06:05;;;;;;;103.38;39.08;;;;;;;4.08;100.00;101363.64;713752;1200;114708;-71
2021/10/25 06:21:09;;;;;;;33.10;16.73;;;;;;;4.80;100.00;101360.42;713803;1200;114885;-72
2021/10/25 06:36:12;;;;;;;26.77;14.03;;;;;;;5.45;100.00;101362.52;713844;1200;115105;-73
2021/10/25 06:51:16;;;;;;;20.50;11.65;;;;;;;5.97;100.00;101363.41;714952;1200;113976;-71
2021/10/25 07:06:19;;;;;;;26.70;12.30;;;;;;;6.35;100.00;101346.71;714170;1205;116640;-72
2021/10/25 08:22:33;;;;;;;21.15;10.65;;;;;;;9.15;94.69;101324.09;714145;1182;115308;-73
2021/10/25 08:52:58;;;;;;;21.98;10.85;;;;;;;10.56;92.10;101298.81;714393;1205;113917;-74
2021/10/25 09:08:04;;;;;;;18.70;10.65;;;;;;;10.93;86.35;101287.44;713719;1200;115380;-74
2021/10/25 09:23:09;;;;;;;22.73;11.15;;;;;;;11.19;82.30;101271.52;713671;1203;115075;-74
2021/10/25 09:38:20;;;;;;;17.43;9.53;;;;;;;11.46;79.49;101258.09;713776;1200;115993;-73
2021/10/25 09:53:46;;;;;;;17.53;8.00;;;;;;;12.03;77.33;101240.55;714131;1206;114951;-74
2021/10/25 10:08:48;;;;;;;13.63;7.37;;;;;;;12.42;74.74;101234.88;714171;1202;115232;-73
2021/10/25 10:24:04;;;;;;;17.98;9.00;;;;;;;12.65;72.70;101225.09;714126;1200;115064;-73
2021/10/25 10:39:10;;;;;;;14.80;8.20;;;;;;;12.72;70.44;101218.38;713720;1179;114313;-75
2021/10/25 10:54:22;;;;;;;18.20;11.18;;;;;;;13.07;69.46;101188.25;713862;1200;115305;-72
2021/10/25 11:09:30;;;;;;;18.90;9.50;;;;;;;13.60;67.54;101176.73;713970;1200;114928;-73
2021/10/25 11:24:33;;;;;;;9.45;6.68;;;;;;;14.28;65.74;101175.25;715648;1205;115000;-73
2021/10/25 11:39:51;;;;;;;13.48;7.65;;;;;;;14.40;64.82;101153.02;713676;1200;113830;-73
2021/10/25 11:54:54;;;;;;;18.30;7.50;;;;;;;14.75;65.04;101145.51;713857;1200;114184;-73
2021/10/25 12:10:06;;;;;;;13.03;7.07;;;;;;;14.53;64.70;101117.56;713943;1188;114064;-73
2021/10/25 12:25:09;;;;;;;15.93;12.40;;;;;;;15.00;65.16;101101.78;714553;1178;114944;-76
2021/10/25 12:40:20;;;;;;;18.75;8.78;;;;;;;15.55;62.27;101071.08;713836;1200;115126;-73
2021/10/25 12:55:22;;;;;;;20.70;13.00;;;;;;;16.76;62.73;101055.55;713977;1177;113984;-74
2021/10/25 13:10:28;;;;;;;18.60;11.00;;;;;;;23.41;56.06;101057.80;713954;1178;116148;-75
2021/10/25 13:25:33;;;;;;;44.53;22.30;;;;;;;25.59;51.65;101039.16;713833;1200;114455;-74
2021/10/25 13:40:37;;;;;;;32.45;15.85;;;;;;;26.30;48.70;101026.38;714274;1200;114300;-75
2021/10/25 13:55:59;;;;;;;21.73;11.35;;;;;;;23.01;48.99;101015.66;714246;1200;115423;-75
2021/10/25 14:11:02;;;;;;;25.18;12.90;;;;;;;17.80;52.72;100999.70;714170;1200;113765;-73
2021/10/25 14:26:05;;;;;;;26.13;13.57;;;;;;;15.81;56.29;100989.22;714797;1200;114292;-70
2021/10/25 14:41:30;;;;;;;55.60;28.15;;;;;;;14.47;60.18;100987.80;714799;1178;115346;-72
2021/10/25 14:56:32;;;;;;;24.43;13.85;;;;;;;13.92;61.32;100974.44;714127;1201;114444;-72
2021/10/25 15:11:35;;;;;;;51.60;23.95;;;;;;;12.56;63.81;100952.13;714543;1200;114633;-71
2021/10/25 15:26:45;;;;;;;38.70;22.10;;;;;;;11.76;66.33;100955.23;714733;1200;114650;-74
2021/10/25 15:41:47;;;;;;;49.43;22.30;;;;;;;10.95;69.03;100959.98;714768;1200;114512;-71
2021/10/25 15:56:52;;;;;;;27.03;15.10;;;;;;;10.40;70.63;100955.47;714181;1205;115389;-72
2021/10/25 16:11:58;;;;;;;47.05;24.15;;;;;;;9.85;72.00;100954.38;714736;1205;114286;-72
2021/10/25 16:27:01;;;;;;;40.07;19.17;;;;;;;9.49;73.87;100955.17;713956;1201;113951;-75
2021/10/25 16:42:06;;;;;;;39.70;20.80;;;;;;;9.31;75.63;100946.03;714123;1203;114722;-74
2021/10/25 17:12:30;;;;;;;44.60;23.83;;;;;;;8.81;78.11;100917.30;714493;1200;114037;-75
2021/10/25 17:27:32;;;;;;;46.13;21.33;;;;;;;8.69;79.69;100912.94;715513;1174;113832;-73
2021/10/25 17:42:35;;;;;;;39.37;18.37;;;;;;;8.58;80.18;100911.91;715328;1202;114158;-74
2021/10/25 17:57:38;;;;;;;50.58;21.20;;;;;;;8.62;80.35;100895.05;714692;1176;117520;-75
2021/10/25 18:12:42;;;;;;;83.90;31.53;;;;;;;8.49;79.37;100881.16;714373;1177;113780;-73
2021/10/25 18:27:47;;;;;;;36.73;17.90;;;;;;;8.35;79.96;100876.84;714427;1200;114253;-73
2021/10/25 18:42:50;;;;;;;35.38;17.63;;;;;;;8.20;80.89;100868.30;714348;1200;115435;-72
2021/10/25 18:57:53;;;;;;;33.10;17.33;;;;;;;8.15;81.05;100862.55;714338;1200;114118;-74
2021/10/25 19:12:56;;;;;;;31.00;16.67;;;;;;;8.08;82.15;100836.00;714392;1176;114260;-74
2021/10/25 19:27:58;;;;;;;47.35;21.75;;;;;;;7.95;82.23;100832.56;714686;1200;115458;-74
2021/10/25 19:43:01;;;;;;;161.55;54.43;;;;;;;7.71;83.37;100816.76;717563;1200;114212;-73
2021/10/25 19:58:03;;;;;;;90.77;33.33;;;;;;;7.39;83.66;100812.78;714314;1200;113993;-73
2021/10/25 20:13:07;;;;;;;92.30;36.78;;;;;;;7.27;84.28;100803.98;714036;1176;113876;-72
2021/10/25 20:28:11;;;;;;;61.00;26.78;;;;;;;7.29;84.80;100803.88;713855;1176;113847;-73
2021/10/25 20:43:13;;;;;;;103.53;38.08;;;;;;;7.16;85.72;100806.45;713869;1185;113678;-72
2021/10/25 20:58:15;;;;;;;41.20;18.98;;;;;;;7.08;86.08;100793.90;713778;1188;114546;-72
2021/10/25 21:13:18;;;;;;;44.60;20.05;;;;;;;6.97;86.32;100805.04;713907;1202;114313;-73
2021/10/25 21:28:20;;;;;;;40.90;18.95;;;;;;;7.04;86.27;100799.44;713684;1179;113696;-73
2021/10/25 21:43:22;;;;;;;30.38;15.03;;;;;;;6.95;86.40;100799.07;713595;1178;113987;-74
2021/10/25 21:58:24;;;;;;;31.75;15.68;;;;;;;6.91;86.12;100776.73;713797;1177;114022;-72
2021/10/25 22:13:26;;;;;;;31.80;17.47;;;;;;;6.78;86.22;100781.93;713927;1177;114498;-74
2021/10/25 22:28:30;;;;;;;26.67;14.23;;;;;;;6.60;87.04;100783.11;713904;1200;113544;-74
2021/10/25 22:43:33;;;;;;;27.88;15.68;;;;;;;6.48;87.84;100772.51;713577;1200;115126;-72
2021/10/25 22:58:36;;;;;;;86.30;28.87;;;;;;;6.37;88.17;100772.33;713529;1200;115473;-73
2021/10/25 23:13:38;;;;;;;54.63;24.48;;;;;;;6.22;89.11;100773.31;714001;1177;113515;-72
2021/10/25 23:28:41;;;;;;;36.13;18.68;;;;;;;6.12;89.64;100778.23;714573;1200;113664;-73
2021/10/25 23:43:44;;;;;;;47.43;21.08;;;;;;;6.09;89.73;100774.05;714656;1200;114738;-73
2021/10/25 23:58:47;;;;;;;31.98;15.20;;;;;;;6.08;90.35;100777.58;713891;1200;113769;-74
